Washburn, IA (50706)

10:43 AM CDT on August 30, 2015 (GMT -0500)
Lanehaven Farms, Inc. | | Change Station
CLOSE
Current Station
Personal Weather Station
Location: Waterloo, IA
Elevation: 950 ft
Nearby Weather Stations
Active Advisory: Flood Warning

Elev 950 ft 42.41 °N, 92.34 °W | Updated 3 minutes ago

Overcast
Overcast
67.0 °F
Feels Like 67.0 °F
N
3.0
Wind Variable Wind from SE
Gusts 3.0 mph

Today
High -- | Low -- °F
--% Chance of Precip.
Yesterday
High -- | Low -- °F
Precip. -- in
6:31 AM 7:46 PM
Full, 99% visible
Pressure 30.06 in
Visibility 8.0 miles
Clouds Overcast 2100 ft
Dew Point 67 °F
Humidity 99%
Rainfall 0.00 in
Snow Depth Not available.
UV 1 out of 12
Pollen 9.90 out of 12
Air Quality Not available.
Flu Activity Not available.
METAR KALO 301454Z 16005KT 8SM OVC021 19/18 A3006 RMK AO2 SLP178 T01940178 51006
Pressure 30.06 in
Visibility 8.0 miles
Clouds Overcast 2100 ft
Dew Point 67 °F
Humidity 99%
Rainfall 0.00 in
Snow Depth Not available.
UV 1 out of 12
Pollen 9.90 out of 12
Air Quality Not available.
Flu Activity Not available.
METAR KALO 301454Z 16005KT 8SM OVC021 19/18 A3006 RMK AO2 SLP178 T01940178 51006

10-Day Weather Forecast

×

Almanac

Astronomy

Aug. 30, 2015 Rise Set
Actual Time
Civil Twilight
Nautical Twilight
Astronomical Twilight
Moon
Length of Visible Light
Length of Day
Tomorrow will be .
, % of the Moon is Illuminated

Today's Extremes

State Highs State Lows

Community

WunderPhotos

Upload Photos

1,850,997 photos uploaded!

WunderBlogs® & News

Nearby

Air Quality

  Air Quality AQ Index Pollutant
Not available.

Snow Depth

Station Depth Elevation

Earthquake Activity

City Distance Mag. Time & Date
Minimum magnitude displayed is 2.5.

Coastal Water Temperatures

Place Temperature

Stations

Nearby Weather Stations

Station Location Temp. Windchill Dew Point Humidity Wind Precip. Elev Updated Type
                   
Flood Warning
Statement as of 9:33 AM CDT on August 30, 2015

... Flood Warning now in effect until after midnight tonight...

The Flood Warning continues for
the Black Hawk creek at Hudson... or from the Black Hawk-Grundy
County line... to the Cedar River in Waterloo.
* Until after midnight tonight.
* At 7:45 am Sunday the stage was 13.4 feet... or 0.6 feet below
flood stage.
* Flood stage is 14.0 feet.
* No flooding is occurring and minor flooding is forecast.
* Forecast... rise to flood stage this morning. Continue rising to
14.6 feet... or 0.6 feet above flood stage... this evening. Go below
flood stage after midnight tonight.
* Impact... at 14.5 feet... portions of ranchero Road west of US 63
are flooded.


Lat... Lon 4248 9228 4235 9247 4235 9254 4242 9254
      4253 9238